sensor_id;sensor_type;location;lat;lon;timestamp;P1;durP1;ratioP1;P2;durP2;ratioP2
57551;SDS011;43379;48.160;14.036;2023-09-19T00:02:16;2.30;;;1.90;;
57551;SDS011;43379;48.160;14.036;2023-09-19T00:04:42;3.23;;;1.70;;
57551;SDS011;43379;48.160;14.036;2023-09-19T00:07:08;4.57;;;2.27;;
57551;SDS011;43379;48.160;14.036;2023-09-19T00:09:34;3.40;;;1.70;;
57551;SDS011;43379;48.160;14.036;2023-09-19T00:12:04;3.07;;;1.80;;
57551;SDS011;43379;48.160;14.036;2023-09-19T00:14:31;3.63;;;2.07;;
57551;SDS011;43379;48.160;14.036;2023-09-19T00:16:59;2.43;;;1.50;;
57551;SDS011;43379;48.160;14.036;2023-09-19T00:19:25;2.10;;;1.60;;
57551;SDS011;43379;48.160;14.036;2023-09-19T00:21:51;2.33;;;1.40;;
57551;SDS011;43379;48.160;14.036;2023-09-19T00:24:18;1.60;;;1.50;;
57551;SDS011;43379;48.160;14.036;2023-09-19T00:26:44;2.33;;;1.63;;
57551;SDS011;43379;48.160;14.036;2023-09-19T00:29:12;2.30;;;1.70;;
57551;SDS011;43379;48.160;14.036;2023-09-19T00:31:43;1.83;;;1.60;;
57551;SDS011;43379;48.160;14.036;2023-09-19T00:34:09;1.60;;;1.13;;
57551;SDS011;43379;48.160;14.036;2023-09-19T00:36:36;2.50;;;1.40;;
57551;SDS011;43379;48.160;14.036;2023-09-19T00:39:05;2.97;;;1.33;;
57551;SDS011;43379;48.160;14.036;2023-09-19T00:41:34;1.87;;;1.20;;
57551;SDS011;43379;48.160;14.036;2023-09-19T00:44:04;2.63;;;1.10;;
57551;SDS011;43379;48.160;14.036;2023-09-19T00:46:31;1.93;;;1.10;;
57551;SDS011;43379;48.160;14.036;2023-09-19T00:49:00;1.60;;;1.20;;
57551;SDS011;43379;48.160;14.036;2023-09-19T00:51:26;2.70;;;1.43;;
57551;SDS011;43379;48.160;14.036;2023-09-19T00:53:52;1.80;;;1.50;;
57551;SDS011;43379;48.160;14.036;2023-09-19T00:56:19;3.37;;;1.60;;
57551;SDS011;43379;48.160;14.036;2023-09-19T00:58:45;2.00;;;1.00;;
57551;SDS011;43379;48.160;14.036;2023-09-19T01:01:15;2.03;;;1.57;;
57551;SDS011;43379;48.160;14.036;2023-09-19T01:03:42;2.20;;;1.50;;
57551;SDS011;43379;48.160;14.036;2023-09-19T01:06:07;2.00;;;1.50;;
57551;SDS011;43379;48.160;14.036;2023-09-19T01:08:33;2.53;;;1.73;;
57551;SDS011;43379;48.160;14.036;2023-09-19T01:11:01;2.83;;;1.50;;
57551;SDS011;43379;48.160;14.036;2023-09-19T01:16:19;3.13;;;1.60;;
57551;SDS011;43379;48.160;14.036;2023-09-19T01:18:59;3.57;;;1.67;;
57551;SDS011;43379;48.160;14.036;2023-09-19T01:30:39;5.03;;;1.60;;
57551;SDS011;43379;48.160;14.036;2023-09-19T01:33:08;2.30;;;1.47;;
57551;SDS011;43379;48.160;14.036;2023-09-19T01:35:37;3.60;;;2.30;;
57551;SDS011;43379;48.160;14.036;2023-09-19T01:38:04;2.67;;;1.50;;
57551;SDS011;43379;48.160;14.036;2023-09-19T01:40:32;1.97;;;1.70;;
57551;SDS011;43379;48.160;14.036;2023-09-19T01:43:09;5.07;;;1.90;;
57551;SDS011;43379;48.160;14.036;2023-09-19T01:48:33;3.93;;;2.57;;
57551;SDS011;43379;48.160;14.036;2023-09-19T01:51:08;3.33;;;1.60;;
57551;SDS011;43379;48.160;14.036;2023-09-19T01:53:40;5.30;;;1.83;;
57551;SDS011;43379;48.160;14.036;2023-09-19T01:56:28;1.83;;;1.40;;
57551;SDS011;43379;48.160;14.036;2023-09-19T01:59:02;2.47;;;1.80;;
57551;SDS011;43379;48.160;14.036;2023-09-19T02:01:32;3.23;;;2.07;;
57551;SDS011;43379;48.160;14.036;2023-09-19T02:04:00;3.47;;;2.13;;
57551;SDS011;43379;48.160;14.036;2023-09-19T02:06:26;7.20;;;2.20;;
57551;SDS011;43379;48.160;14.036;2023-09-19T02:08:53;3.70;;;1.70;;
57551;SDS011;43379;48.160;14.036;2023-09-19T02:11:19;5.27;;;1.80;;
57551;SDS011;43379;48.160;14.036;2023-09-19T02:13:44;2.40;;;1.40;;
57551;SDS011;43379;48.160;14.036;2023-09-19T02:16:10;5.73;;;2.00;;
57551;SDS011;43379;48.160;14.036;2023-09-19T02:18:37;3.50;;;1.87;;
57551;SDS011;43379;48.160;14.036;2023-09-19T02:21:04;2.17;;;1.60;;
57551;SDS011;43379;48.160;14.036;2023-09-19T02:23:31;1.90;;;1.50;;
57551;SDS011;43379;48.160;14.036;2023-09-19T02:25:58;3.73;;;1.60;;
57551;SDS011;43379;48.160;14.036;2023-09-19T02:28:25;3.43;;;1.57;;
57551;SDS011;43379;48.160;14.036;2023-09-19T02:30:55;2.80;;;2.00;;
57551;SDS011;43379;48.160;14.036;2023-09-19T02:33:21;2.40;;;1.50;;
57551;SDS011;43379;48.160;14.036;2023-09-19T02:35:47;3.90;;;1.90;;
57551;SDS011;43379;48.160;14.036;2023-09-19T02:38:13;2.80;;;1.83;;
57551;SDS011;43379;48.160;14.036;2023-09-19T02:40:43;2.60;;;2.13;;
57551;SDS011;43379;48.160;14.036;2023-09-19T02:43:09;3.67;;;2.30;;
57551;SDS011;43379;48.160;14.036;2023-09-19T02:45:34;2.63;;;2.10;;
57551;SDS011;43379;48.160;14.036;2023-09-19T02:48:00;4.50;;;2.20;;
57551;SDS011;43379;48.160;14.036;2023-09-19T02:50:27;3.40;;;2.20;;
57551;SDS011;43379;48.160;14.036;2023-09-19T02:52:53;3.10;;;2.00;;
57551;SDS011;43379;48.160;14.036;2023-09-19T02:55:19;2.90;;;2.10;;
57551;SDS011;43379;48.160;14.036;2023-09-19T02:57:50;2.50;;;1.80;;
57551;SDS011;43379;48.160;14.036;2023-09-19T03:00:19;3.03;;;1.90;;
57551;SDS011;43379;48.160;14.036;2023-09-19T03:02:46;3.43;;;2.53;;
57551;SDS011;43379;48.160;14.036;2023-09-19T03:05:15;4.70;;;2.47;;
57551;SDS011;43379;48.160;14.036;2023-09-19T03:07:41;3.83;;;1.87;;
57551;SDS011;43379;48.160;14.036;2023-09-19T03:10:08;2.67;;;2.10;;
57551;SDS011;43379;48.160;14.036;2023-09-19T03:12:34;5.07;;;2.00;;
57551;SDS011;43379;48.160;14.036;2023-09-19T03:15:00;3.10;;;1.90;;
57551;SDS011;43379;48.160;14.036;2023-09-19T03:17:27;3.30;;;2.00;;
57551;SDS011;43379;48.160;14.036;2023-09-19T03:19:53;4.97;;;2.33;;
57551;SDS011;43379;48.160;14.036;2023-09-19T03:22:19;6.87;;;2.07;;
57551;SDS011;43379;48.160;14.036;2023-09-19T03:24:45;2.70;;;1.93;;
57551;SDS011;43379;48.160;14.036;2023-09-19T03:27:11;2.80;;;1.83;;
57551;SDS011;43379;48.160;14.036;2023-09-19T03:29:41;5.03;;;1.97;;
57551;SDS011;43379;48.160;14.036;2023-09-19T03:32:07;2.57;;;2.20;;
57551;SDS011;43379;48.160;14.036;2023-09-19T03:34:36;3.47;;;2.17;;
57551;SDS011;43379;48.160;14.036;2023-09-19T03:37:08;3.77;;;2.27;;
57551;SDS011;43379;48.160;14.036;2023-09-19T03:39:34;2.67;;;1.83;;
57551;SDS011;43379;48.160;14.036;2023-09-19T03:42:00;3.60;;;2.40;;
57551;SDS011;43379;48.160;14.036;2023-09-19T03:44:28;3.93;;;2.37;;
57551;SDS011;43379;48.160;14.036;2023-09-19T03:46:55;5.00;;;2.33;;
57551;SDS011;43379;48.160;14.036;2023-09-19T03:49:22;2.30;;;1.80;;
57551;SDS011;43379;48.160;14.036;2023-09-19T03:51:47;3.77;;;2.40;;
57551;SDS011;43379;48.160;14.036;2023-09-19T03:54:13;2.90;;;1.90;;
57551;SDS011;43379;48.160;14.036;2023-09-19T03:56:38;2.83;;;2.30;;
57551;SDS011;43379;48.160;14.036;2023-09-19T03:59:04;2.90;;;2.00;;
57551;SDS011;43379;48.160;14.036;2023-09-19T04:01:30;5.93;;;2.20;;
57551;SDS011;43379;48.160;14.036;2023-09-19T04:03:58;5.37;;;2.50;;
57551;SDS011;43379;48.160;14.036;2023-09-19T04:06:24;4.60;;;2.60;;
57551;SDS011;43379;48.160;14.036;2023-09-19T04:08:49;2.50;;;2.00;;
57551;SDS011;43379;48.160;14.036;2023-09-19T04:11:15;2.67;;;2.10;;
57551;SDS011;43379;48.160;14.036;2023-09-19T04:13:41;3.47;;;1.90;;
57551;SDS011;43379;48.160;14.036;2023-09-19T04:16:06;3.53;;;2.40;;
57551;SDS011;43379;48.160;14.036;2023-09-19T04:18:32;2.87;;;2.00;;
57551;SDS011;43379;48.160;14.036;2023-09-19T04:21:02;3.00;;;2.10;;
57551;SDS011;43379;48.160;14.036;2023-09-19T04:23:29;5.33;;;2.20;;
57551;SDS011;43379;48.160;14.036;2023-09-19T04:25:55;2.43;;;2.07;;
57551;SDS011;43379;48.160;14.036;2023-09-19T04:28:20;2.37;;;2.10;;
57551;SDS011;43379;48.160;14.036;2023-09-19T04:30:46;2.80;;;2.30;;
57551;SDS011;43379;48.160;14.036;2023-09-19T04:33:13;4.60;;;2.00;;
57551;SDS011;43379;48.160;14.036;2023-09-19T04:35:41;2.40;;;1.87;;
57551;SDS011;43379;48.160;14.036;2023-09-19T04:38:10;2.63;;;1.87;;
57551;SDS011;43379;48.160;14.036;2023-09-19T04:40:36;2.90;;;2.30;;
57551;SDS011;43379;48.160;14.036;2023-09-19T04:43:04;3.13;;;2.20;;
57551;SDS011;43379;48.160;14.036;2023-09-19T04:45:31;2.70;;;1.80;;
57551;SDS011;43379;48.160;14.036;2023-09-19T04:47:56;2.70;;;2.23;;
57551;SDS011;43379;48.160;14.036;2023-09-19T04:50:23;4.00;;;2.10;;
57551;SDS011;43379;48.160;14.036;2023-09-19T04:52:53;2.40;;;1.87;;
57551;SDS011;43379;48.160;14.036;2023-09-19T04:55:18;4.43;;;2.00;;
57551;SDS011;43379;48.160;14.036;2023-09-19T04:57:45;4.23;;;2.10;;
57551;SDS011;43379;48.160;14.036;2023-09-19T05:00:21;4.03;;;2.37;;
57551;SDS011;43379;48.160;14.036;2023-09-19T05:02:49;3.00;;;2.33;;
57551;SDS011;43379;48.160;14.036;2023-09-19T05:05:16;2.43;;;2.10;;
57551;SDS011;43379;48.160;14.036;2023-09-19T05:07:43;4.23;;;2.47;;
57551;SDS011;43379;48.160;14.036;2023-09-19T05:10:10;3.90;;;2.17;;
57551;SDS011;43379;48.160;14.036;2023-09-19T05:12:36;3.63;;;2.10;;
57551;SDS011;43379;48.160;14.036;2023-09-19T05:15:03;2.57;;;1.80;;
57551;SDS011;43379;48.160;14.036;2023-09-19T05:17:29;4.00;;;2.30;;
57551;SDS011;43379;48.160;14.036;2023-09-19T05:19:56;4.03;;;2.40;;
57551;SDS011;43379;48.160;14.036;2023-09-19T05:22:23;4.73;;;2.20;;
57551;SDS011;43379;48.160;14.036;2023-09-19T05:24:51;3.20;;;2.30;;
57551;SDS011;43379;48.160;14.036;2023-09-19T05:27:18;3.70;;;2.50;;
57551;SDS011;43379;48.160;14.036;2023-09-19T05:29:45;3.20;;;2.30;;
57551;SDS011;43379;48.160;14.036;2023-09-19T05:32:11;2.80;;;2.10;;
57551;SDS011;43379;48.160;14.036;2023-09-19T05:34:37;4.23;;;2.03;;
57551;SDS011;43379;48.160;14.036;2023-09-19T05:37:04;4.00;;;2.30;;
57551;SDS011;43379;48.160;14.036;2023-09-19T05:39:32;3.10;;;2.20;;
57551;SDS011;43379;48.160;14.036;2023-09-19T05:41:58;2.20;;;2.00;;
57551;SDS011;43379;48.160;14.036;2023-09-19T05:44:25;4.30;;;2.30;;
57551;SDS011;43379;48.160;14.036;2023-09-19T05:46:51;2.57;;;2.13;;
57551;SDS011;43379;48.160;14.036;2023-09-19T05:49:16;3.30;;;1.90;;
57551;SDS011;43379;48.160;14.036;2023-09-19T05:51:42;5.67;;;2.50;;
57551;SDS011;43379;48.160;14.036;2023-09-19T05:54:08;2.80;;;2.03;;
57551;SDS011;43379;48.160;14.036;2023-09-19T05:56:34;2.23;;;1.70;;
57551;SDS011;43379;48.160;14.036;2023-09-19T05:58:59;4.30;;;1.90;;
57551;SDS011;43379;48.160;14.036;2023-09-19T06:01:25;3.57;;;2.07;;
57551;SDS011;43379;48.160;14.036;2023-09-19T06:03:52;1.90;;;1.60;;
57551;SDS011;43379;48.160;14.036;2023-09-19T06:06:18;2.30;;;2.00;;
57551;SDS011;43379;48.160;14.036;2023-09-19T06:08:44;4.03;;;2.63;;
57551;SDS011;43379;48.160;14.036;2023-09-19T06:11:09;3.30;;;2.30;;
57551;SDS011;43379;48.160;14.036;2023-09-19T06:13:35;2.33;;;2.13;;
57551;SDS011;43379;48.160;14.036;2023-09-19T06:16:04;2.77;;;2.23;;
57551;SDS011;43379;48.160;14.036;2023-09-19T06:18:30;4.37;;;2.07;;
57551;SDS011;43379;48.160;14.036;2023-09-19T06:20:58;3.10;;;2.20;;
57551;SDS011;43379;48.160;14.036;2023-09-19T06:23:25;5.00;;;2.23;;
57551;SDS011;43379;48.160;14.036;2023-09-19T06:25:52;2.80;;;2.50;;
57551;SDS011;43379;48.160;14.036;2023-09-19T06:28:18;3.60;;;2.50;;
57551;SDS011;43379;48.160;14.036;2023-09-19T06:30:49;3.70;;;2.50;;
57551;SDS011;43379;48.160;14.036;2023-09-19T06:33:14;4.33;;;2.40;;
57551;SDS011;43379;48.160;14.036;2023-09-19T06:35:40;3.23;;;1.93;;
57551;SDS011;43379;48.160;14.036;2023-09-19T06:38:07;3.70;;;2.20;;
57551;SDS011;43379;48.160;14.036;2023-09-19T06:40:36;4.07;;;2.50;;
57551;SDS011;43379;48.160;14.036;2023-09-19T06:43:01;3.73;;;2.50;;
57551;SDS011;43379;48.160;14.036;2023-09-19T06:45:28;3.13;;;2.10;;
57551;SDS011;43379;48.160;14.036;2023-09-19T06:47:53;4.37;;;2.30;;
57551;SDS011;43379;48.160;14.036;2023-09-19T06:50:22;3.70;;;2.30;;
57551;SDS011;43379;48.160;14.036;2023-09-19T06:52:49;4.33;;;2.20;;
57551;SDS011;43379;48.160;14.036;2023-09-19T06:55:16;4.13;;;2.40;;
57551;SDS011;43379;48.160;14.036;2023-09-19T06:57:44;6.67;;;2.07;;
57551;SDS011;43379;48.160;14.036;2023-09-19T07:00:11;3.77;;;2.20;;
57551;SDS011;43379;48.160;14.036;2023-09-19T07:02:41;2.63;;;1.63;;
57551;SDS011;43379;48.160;14.036;2023-09-19T07:05:07;3.00;;;1.80;;
57551;SDS011;43379;48.160;14.036;2023-09-19T07:07:33;2.70;;;1.90;;
57551;SDS011;43379;48.160;14.036;2023-09-19T07:10:02;2.73;;;1.67;;
57551;SDS011;43379;48.160;14.036;2023-09-19T07:12:30;5.77;;;2.40;;
57551;SDS011;43379;48.160;14.036;2023-09-19T07:14:57;3.80;;;2.40;;
57551;SDS011;43379;48.160;14.036;2023-09-19T07:17:23;3.27;;;2.23;;
57551;SDS011;43379;48.160;14.036;2023-09-19T07:19:49;2.77;;;1.93;;
57551;SDS011;43379;48.160;14.036;2023-09-19T07:22:15;3.53;;;2.33;;
57551;SDS011;43379;48.160;14.036;2023-09-19T07:24:41;5.80;;;2.80;;
57551;SDS011;43379;48.160;14.036;2023-09-19T07:27:07;2.77;;;2.47;;
57551;SDS011;43379;48.160;14.036;2023-09-19T07:29:33;3.63;;;2.60;;
57551;SDS011;43379;48.160;14.036;2023-09-19T07:31:59;2.67;;;2.40;;
57551;SDS011;43379;48.160;14.036;2023-09-19T07:34:25;2.80;;;2.23;;
57551;SDS011;43379;48.160;14.036;2023-09-19T07:36:51;3.07;;;1.93;;
57551;SDS011;43379;48.160;14.036;2023-09-19T07:39:16;2.37;;;2.17;;
57551;SDS011;43379;48.160;14.036;2023-09-19T07:41:42;2.93;;;1.90;;
57551;SDS011;43379;48.160;14.036;2023-09-19T07:44:08;2.20;;;1.90;;
57551;SDS011;43379;48.160;14.036;2023-09-19T07:46:35;2.60;;;2.40;;
57551;SDS011;43379;48.160;14.036;2023-09-19T07:49:01;3.67;;;2.33;;
57551;SDS011;43379;48.160;14.036;2023-09-19T07:51:27;2.47;;;2.10;;
57551;SDS011;43379;48.160;14.036;2023-09-19T07:53:53;4.27;;;1.70;;
57551;SDS011;43379;48.160;14.036;2023-09-19T07:56:19;3.10;;;1.87;;
57551;SDS011;43379;48.160;14.036;2023-09-19T07:58:45;2.30;;;2.00;;
57551;SDS011;43379;48.160;14.036;2023-09-19T08:01:11;5.90;;;2.13;;
57551;SDS011;43379;48.160;14.036;2023-09-19T08:03:39;3.00;;;2.03;;
57551;SDS011;43379;48.160;14.036;2023-09-19T08:06:08;2.23;;;1.80;;
57551;SDS011;43379;48.160;14.036;2023-09-19T08:08:34;2.73;;;2.40;;
57551;SDS011;43379;48.160;14.036;2023-09-19T08:11:04;2.20;;;2.00;;
57551;SDS011;43379;48.160;14.036;2023-09-19T08:13:46;2.53;;;1.93;;
57551;SDS011;43379;48.160;14.036;2023-09-19T08:16:14;2.40;;;2.17;;
57551;SDS011;43379;48.160;14.036;2023-09-19T08:18:40;3.63;;;2.33;;
57551;SDS011;43379;48.160;14.036;2023-09-19T08:21:06;3.67;;;2.10;;
57551;SDS011;43379;48.160;14.036;2023-09-19T08:23:35;3.07;;;1.83;;
57551;SDS011;43379;48.160;14.036;2023-09-19T08:26:04;2.53;;;1.70;;
57551;SDS011;43379;48.160;14.036;2023-09-19T08:28:33;1.73;;;1.50;;
57551;SDS011;43379;48.160;14.036;2023-09-19T08:31:03;3.30;;;1.80;;
57551;SDS011;43379;48.160;14.036;2023-09-19T08:33:31;4.17;;;1.40;;
57551;SDS011;43379;48.160;14.036;2023-09-19T08:36:01;2.53;;;2.10;;
57551;SDS011;43379;48.160;14.036;2023-09-19T08:38:31;3.20;;;1.83;;
57551;SDS011;43379;48.160;14.036;2023-09-19T08:40:59;3.43;;;1.40;;
57551;SDS011;43379;48.160;14.036;2023-09-19T08:43:26;2.90;;;1.60;;
57551;SDS011;43379;48.160;14.036;2023-09-19T08:45:57;1.70;;;1.60;;
57551;SDS011;43379;48.160;14.036;2023-09-19T08:48:33;2.10;;;1.73;;
57551;SDS011;43379;48.160;14.036;2023-09-19T08:53:41;3.33;;;1.70;;
57551;SDS011;43379;48.160;14.036;2023-09-19T08:56:18;2.73;;;1.90;;
57551;SDS011;43379;48.160;14.036;2023-09-19T08:58:46;2.40;;;1.97;;
57551;SDS011;43379;48.160;14.036;2023-09-19T09:01:20;2.40;;;1.80;;
57551;SDS011;43379;48.160;14.036;2023-09-19T09:03:52;4.23;;;1.97;;
57551;SDS011;43379;48.160;14.036;2023-09-19T09:06:19;2.70;;;1.80;;
57551;SDS011;43379;48.160;14.036;2023-09-19T09:08:46;2.70;;;1.70;;
57551;SDS011;43379;48.160;14.036;2023-09-19T09:11:12;3.60;;;1.93;;
57551;SDS011;43379;48.160;14.036;2023-09-19T09:13:39;2.83;;;2.10;;
57551;SDS011;43379;48.160;14.036;2023-09-19T09:16:06;2.60;;;1.83;;
57551;SDS011;43379;48.160;14.036;2023-09-19T09:18:33;2.87;;;1.63;;
57551;SDS011;43379;48.160;14.036;2023-09-19T09:20:58;2.57;;;1.83;;
57551;SDS011;43379;48.160;14.036;2023-09-19T09:23:25;1.97;;;1.80;;
57551;SDS011;43379;48.160;14.036;2023-09-19T09:25:55;2.53;;;1.83;;
57551;SDS011;43379;48.160;14.036;2023-09-19T09:28:25;2.60;;;1.87;;
57551;SDS011;43379;48.160;14.036;2023-09-19T09:30:52;2.40;;;2.13;;
57551;SDS011;43379;48.160;14.036;2023-09-19T09:33:18;3.03;;;1.90;;
57551;SDS011;43379;48.160;14.036;2023-09-19T09:36:02;2.17;;;1.93;;
57551;SDS011;43379;48.160;14.036;2023-09-19T09:38:42;2.40;;;1.50;;
57551;SDS011;43379;48.160;14.036;2023-09-19T09:41:09;3.53;;;2.90;;
57551;SDS011;43379;48.160;14.036;2023-09-19T09:43:40;2.57;;;1.90;;
57551;SDS011;43379;48.160;14.036;2023-09-19T09:51:47;4.00;;;2.10;;
57551;SDS011;43379;48.160;14.036;2023-09-19T09:54:24;3.00;;;1.60;;
57551;SDS011;43379;48.160;14.036;2023-09-19T09:57:10;2.57;;;1.77;;
57551;SDS011;43379;48.160;14.036;2023-09-19T10:02:18;4.40;;;1.60;;
57551;SDS011;43379;48.160;14.036;2023-09-19T10:04:53;2.10;;;1.40;;
57551;SDS011;43379;48.160;14.036;2023-09-19T10:07:40;2.10;;;1.40;;
57551;SDS011;43379;48.160;14.036;2023-09-19T10:10:14;2.10;;;1.50;;
57551;SDS011;43379;48.160;14.036;2023-09-19T10:12:46;2.83;;;1.70;;
57551;SDS011;43379;48.160;14.036;2023-09-19T10:15:14;3.60;;;1.40;;
57551;SDS011;43379;48.160;14.036;2023-09-19T10:17:42;2.10;;;1.50;;
57551;SDS011;43379;48.160;14.036;2023-09-19T10:20:11;4.37;;;1.70;;
57551;SDS011;43379;48.160;14.036;2023-09-19T10:22:59;1.83;;;1.40;;
57551;SDS011;43379;48.160;14.036;2023-09-19T10:25:29;2.80;;;1.57;;
57551;SDS011;43379;48.160;14.036;2023-09-19T10:27:57;3.60;;;1.63;;
57551;SDS011;43379;48.160;14.036;2023-09-19T10:30:28;2.83;;;1.27;;
57551;SDS011;43379;48.160;14.036;2023-09-19T10:33:02;3.40;;;1.67;;
57551;SDS011;43379;48.160;14.036;2023-09-19T10:35:30;2.20;;;1.63;;
57551;SDS011;43379;48.160;14.036;2023-09-19T10:37:59;2.03;;;1.43;;
57551;SDS011;43379;48.160;14.036;2023-09-19T10:40:26;2.40;;;1.47;;
57551;SDS011;43379;48.160;14.036;2023-09-19T10:43:05;2.87;;;1.17;;
57551;SDS011;43379;48.160;14.036;2023-09-19T10:45:32;1.70;;;1.30;;
57551;SDS011;43379;48.160;14.036;2023-09-19T10:48:00;5.10;;;1.53;;
57551;SDS011;43379;48.160;14.036;2023-09-19T10:50:36;1.90;;;1.70;;
57551;SDS011;43379;48.160;14.036;2023-09-19T10:53:10;2.17;;;1.40;;
57551;SDS011;43379;48.160;14.036;2023-09-19T10:55:37;1.80;;;1.47;;
57551;SDS011;43379;48.160;14.036;2023-09-19T10:58:05;2.00;;;1.13;;
57551;SDS011;43379;48.160;14.036;2023-09-19T11:01:13;1.87;;;1.40;;
57551;SDS011;43379;48.160;14.036;2023-09-19T11:03:37;2.43;;;1.60;;
57551;SDS011;43379;48.160;14.036;2023-09-19T11:06:17;3.10;;;1.57;;
57551;SDS011;43379;48.160;14.036;2023-09-19T11:09:02;2.00;;;1.23;;
57551;SDS011;43379;48.160;14.036;2023-09-19T11:11:41;3.17;;;1.40;;
57551;SDS011;43379;48.160;14.036;2023-09-19T11:14:29;1.67;;;1.30;;
57551;SDS011;43379;48.160;14.036;2023-09-19T11:33:16;3.17;;;1.30;;
57551;SDS011;43379;48.160;14.036;2023-09-19T11:36:02;2.13;;;1.17;;
57551;SDS011;43379;48.160;14.036;2023-09-19T11:43:53;1.63;;;1.30;;
57551;SDS011;43379;48.160;14.036;2023-09-19T11:49:28;2.87;;;1.17;;
57551;SDS011;43379;48.160;14.036;2023-09-19T11:51:58;1.33;;;1.20;;
57551;SDS011;43379;48.160;14.036;2023-09-19T11:54:31;1.40;;;1.30;;
57551;SDS011;43379;48.160;14.036;2023-09-19T11:56:57;2.87;;;1.50;;
57551;SDS011;43379;48.160;14.036;2023-09-19T11:59:25;2.37;;;1.20;;
57551;SDS011;43379;48.160;14.036;2023-09-19T12:01:54;2.70;;;1.40;;
57551;SDS011;43379;48.160;14.036;2023-09-19T12:07:03;4.30;;;2.03;;
57551;SDS011;43379;48.160;14.036;2023-09-19T12:09:30;2.33;;;1.30;;
57551;SDS011;43379;48.160;14.036;2023-09-19T12:11:56;2.37;;;1.60;;
57551;SDS011;43379;48.160;14.036;2023-09-19T12:14:25;3.77;;;1.50;;
57551;SDS011;43379;48.160;14.036;2023-09-19T12:16:53;2.17;;;1.70;;
57551;SDS011;43379;48.160;14.036;2023-09-19T12:19:20;2.77;;;1.53;;
57551;SDS011;43379;48.160;14.036;2023-09-19T12:21:57;2.60;;;1.63;;
57551;SDS011;43379;48.160;14.036;2023-09-19T12:24:25;2.00;;;1.70;;
57551;SDS011;43379;48.160;14.036;2023-09-19T12:26:51;2.77;;;1.60;;
57551;SDS011;43379;48.160;14.036;2023-09-19T12:29:20;3.10;;;1.50;;
57551;SDS011;43379;48.160;14.036;2023-09-19T12:31:53;2.80;;;1.40;;
57551;SDS011;43379;48.160;14.036;2023-09-19T12:34:23;2.40;;;1.30;;
57551;SDS011;43379;48.160;14.036;2023-09-19T12:37:05;2.53;;;1.60;;
57551;SDS011;43379;48.160;14.036;2023-09-19T12:39:41;2.53;;;1.27;;
57551;SDS011;43379;48.160;14.036;2023-09-19T12:42:10;2.40;;;1.43;;
57551;SDS011;43379;48.160;14.036;2023-09-19T12:44:40;2.40;;;1.17;;
57551;SDS011;43379;48.160;14.036;2023-09-19T12:47:11;2.57;;;1.40;;
57551;SDS011;43379;48.160;14.036;2023-09-19T12:52:36;1.60;;;1.20;;
57551;SDS011;43379;48.160;14.036;2023-09-19T12:55:02;2.67;;;1.03;;
57551;SDS011;43379;48.160;14.036;2023-09-19T12:57:29;1.57;;;1.30;;
57551;SDS011;43379;48.160;14.036;2023-09-19T12:59:59;1.93;;;1.10;;
57551;SDS011;43379;48.160;14.036;2023-09-19T13:02:31;1.90;;;1.47;;
57551;SDS011;43379;48.160;14.036;2023-09-19T13:04:58;2.03;;;1.27;;
57551;SDS011;43379;48.160;14.036;2023-09-19T13:07:44;2.70;;;1.10;;
57551;SDS011;43379;48.160;14.036;2023-09-19T13:10:14;2.50;;;1.37;;
57551;SDS011;43379;48.160;14.036;2023-09-19T13:12:42;1.43;;;1.13;;
57551;SDS011;43379;48.160;14.036;2023-09-19T13:15:13;1.53;;;1.33;;
57551;SDS011;43379;48.160;14.036;2023-09-19T13:17:48;2.03;;;1.47;;
57551;SDS011;43379;48.160;14.036;2023-09-19T13:23:26;2.47;;;1.60;;
57551;SDS011;43379;48.160;14.036;2023-09-19T13:25:52;2.57;;;1.27;;
57551;SDS011;43379;48.160;14.036;2023-09-19T13:28:18;2.00;;;1.27;;
57551;SDS011;43379;48.160;14.036;2023-09-19T13:30:43;1.50;;;1.30;;
57551;SDS011;43379;48.160;14.036;2023-09-19T13:33:10;4.03;;;1.00;;
57551;SDS011;43379;48.160;14.036;2023-09-19T13:35:37;1.77;;;1.17;;
57551;SDS011;43379;48.160;14.036;2023-09-19T13:38:05;1.37;;;1.10;;
57551;SDS011;43379;48.160;14.036;2023-09-19T13:40:34;1.87;;;1.20;;
57551;SDS011;43379;48.160;14.036;2023-09-19T13:43:00;2.77;;;1.10;;
57551;SDS011;43379;48.160;14.036;2023-09-19T13:45:26;1.47;;;1.00;;
57551;SDS011;43379;48.160;14.036;2023-09-19T13:47:55;4.80;;;1.20;;
57551;SDS011;43379;48.160;14.036;2023-09-19T13:50:21;2.57;;;2.30;;
57551;SDS011;43379;48.160;14.036;2023-09-19T13:52:49;3.87;;;2.20;;
57551;SDS011;43379;48.160;14.036;2023-09-19T13:55:16;4.10;;;1.60;;
57551;SDS011;43379;48.160;14.036;2023-09-19T13:57:45;2.83;;;1.80;;
57551;SDS011;43379;48.160;14.036;2023-09-19T14:00:15;2.33;;;1.40;;
57551;SDS011;43379;48.160;14.036;2023-09-19T14:02:41;1.83;;;1.20;;
57551;SDS011;43379;48.160;14.036;2023-09-19T14:05:09;3.10;;;1.47;;
57551;SDS011;43379;48.160;14.036;2023-09-19T14:07:37;1.30;;;1.10;;
57551;SDS011;43379;48.160;14.036;2023-09-19T14:10:03;1.53;;;0.90;;
57551;SDS011;43379;48.160;14.036;2023-09-19T14:12:32;1.57;;;1.00;;
57551;SDS011;43379;48.160;14.036;2023-09-19T14:14:59;2.87;;;1.20;;
57551;SDS011;43379;48.160;14.036;2023-09-19T14:17:25;1.40;;;1.03;;
57551;SDS011;43379;48.160;14.036;2023-09-19T14:19:51;1.50;;;0.97;;
57551;SDS011;43379;48.160;14.036;2023-09-19T14:22:17;2.90;;;1.47;;
57551;SDS011;43379;48.160;14.036;2023-09-19T14:24:43;1.93;;;0.87;;
57551;SDS011;43379;48.160;14.036;2023-09-19T14:27:09;1.47;;;0.97;;
57551;SDS011;43379;48.160;14.036;2023-09-19T14:29:35;2.10;;;1.17;;
57551;SDS011;43379;48.160;14.036;2023-09-19T14:32:01;1.80;;;0.87;;
57551;SDS011;43379;48.160;14.036;2023-09-19T14:34:27;1.30;;;0.87;;
57551;SDS011;43379;48.160;14.036;2023-09-19T14:36:52;1.70;;;1.10;;
57551;SDS011;43379;48.160;14.036;2023-09-19T14:39:19;1.40;;;0.87;;
57551;SDS011;43379;48.160;14.036;2023-09-19T14:41:45;1.60;;;1.10;;
57551;SDS011;43379;48.160;14.036;2023-09-19T14:44:10;5.57;;;1.40;;
57551;SDS011;43379;48.160;14.036;2023-09-19T14:46:36;1.70;;;1.50;;
57551;SDS011;43379;48.160;14.036;2023-09-19T14:49:02;2.27;;;1.50;;
57551;SDS011;43379;48.160;14.036;2023-09-19T14:51:29;1.30;;;1.10;;
57551;SDS011;43379;48.160;14.036;2023-09-19T14:53:55;1.40;;;0.97;;
57551;SDS011;43379;48.160;14.036;2023-09-19T14:56:21;2.83;;;1.63;;
57551;SDS011;43379;48.160;14.036;2023-09-19T14:58:49;1.63;;;0.90;;
57551;SDS011;43379;48.160;14.036;2023-09-19T15:01:14;1.70;;;1.10;;
57551;SDS011;43379;48.160;14.036;2023-09-19T15:03:40;1.70;;;1.30;;
57551;SDS011;43379;48.160;14.036;2023-09-19T15:06:11;2.10;;;1.37;;
57551;SDS011;43379;48.160;14.036;2023-09-19T15:08:43;2.23;;;1.20;;
57551;SDS011;43379;48.160;14.036;2023-09-19T15:11:13;3.50;;;1.37;;
57551;SDS011;43379;48.160;14.036;2023-09-19T15:13:42;1.70;;;1.30;;
57551;SDS011;43379;48.160;14.036;2023-09-19T15:16:09;1.20;;;0.87;;
57551;SDS011;43379;48.160;14.036;2023-09-19T15:18:36;1.90;;;0.93;;
57551;SDS011;43379;48.160;14.036;2023-09-19T15:21:06;3.00;;;1.30;;
57551;SDS011;43379;48.160;14.036;2023-09-19T15:23:33;2.83;;;1.30;;
57551;SDS011;43379;48.160;14.036;2023-09-19T15:26:10;5.00;;;1.60;;
57551;SDS011;43379;48.160;14.036;2023-09-19T15:28:37;2.57;;;1.63;;
57551;SDS011;43379;48.160;14.036;2023-09-19T15:31:10;1.50;;;1.40;;
57551;SDS011;43379;48.160;14.036;2023-09-19T15:33:37;1.90;;;1.50;;
57551;SDS011;43379;48.160;14.036;2023-09-19T15:36:03;1.47;;;1.00;;
57551;SDS011;43379;48.160;14.036;2023-09-19T15:41:22;2.30;;;1.50;;
57551;SDS011;43379;48.160;14.036;2023-09-19T15:43:49;2.37;;;1.10;;